DABB

Annaba Airport

Annabah, Algeria
METAR DABB 092200Z 23010KT CAVOK 11/10 Q1025
Observed Flight Rules
Dec-9 @ 22:00 UTC (19 minutes ago) Visual Flight Rules
Wind Visibility Clouds
230° at 10 knots 10,000+ meters
  • Clear skies
Temperatures Readings
Current 11°C / 52°F
Dewpoint 10°C / 50°F
Humidity 94%
Altimeter 30.27" Hg
Pressure 1025 hPa
Elevation 4
METAR DABB 092200Z 23010KT CAVOK 11/10 Q1025
Observed Flight Rules
Dec-9 @ 22:00 UTC
(19 minutes ago)
VFR
Wind Visibility
230° at 10 knots 10,000+ meters
Clouds
  • Clear skies
Temperature Dewpoint
11°C / 52°F 10°C / 50°F
Humidity Altimeter Pressure
94% 30.27" Hg 1025 hPa